sensor_id;sensor_type;location;lat;lon;timestamp;temperature;humidity
26691;DHT22;14307;51.718;8.938;2023-04-24T00:01:01;10.70;99.90
26691;DHT22;14307;51.718;8.938;2023-04-24T00:03:28;10.60;99.90
26691;DHT22;14307;51.718;8.938;2023-04-24T00:05:55;10.50;99.90
26691;DHT22;14307;51.718;8.938;2023-04-24T00:08:22;10.40;99.90
26691;DHT22;14307;51.718;8.938;2023-04-24T00:10:50;10.40;99.90
26691;DHT22;14307;51.718;8.938;2023-04-24T00:13:18;10.40;99.90
26691;DHT22;14307;51.718;8.938;2023-04-24T00:15:45;10.20;99.90
26691;DHT22;14307;51.718;8.938;2023-04-24T00:18:12;10.20;99.90
26691;DHT22;14307;51.718;8.938;2023-04-24T00:20:38;10.20;99.90
26691;DHT22;14307;51.718;8.938;2023-04-24T00:23:06;10.20;99.90
26691;DHT22;14307;51.718;8.938;2023-04-24T00:25:32;10.30;99.90
26691;DHT22;14307;51.718;8.938;2023-04-24T00:27:59;10.20;99.90
26691;DHT22;14307;51.718;8.938;2023-04-24T00:30:26;10.30;99.90
26691;DHT22;14307;51.718;8.938;2023-04-24T00:32:52;10.20;99.90
26691;DHT22;14307;51.718;8.938;2023-04-24T00:35:19;10.20;99.90
26691;DHT22;14307;51.718;8.938;2023-04-24T00:37:46;10.10;99.90
26691;DHT22;14307;51.718;8.938;2023-04-24T00:40:13;10.00;99.90
26691;DHT22;14307;51.718;8.938;2023-04-24T00:42:41;9.90;99.90
26691;DHT22;14307;51.718;8.938;2023-04-24T00:45:08;9.90;99.90
26691;DHT22;14307;51.718;8.938;2023-04-24T00:47:35;9.80;99.90
26691;DHT22;14307;51.718;8.938;2023-04-24T00:50:04;9.70;99.90
26691;DHT22;14307;51.718;8.938;2023-04-24T00:52:32;9.70;99.90
26691;DHT22;14307;51.718;8.938;2023-04-24T00:54:59;9.70;99.90
26691;DHT22;14307;51.718;8.938;2023-04-24T00:57:26;9.60;99.90
26691;DHT22;14307;51.718;8.938;2023-04-24T00:59:53;9.60;99.90
26691;DHT22;14307;51.718;8.938;2023-04-24T01:02:21;9.60;99.90
26691;DHT22;14307;51.718;8.938;2023-04-24T01:04:52;9.50;99.90
26691;DHT22;14307;51.718;8.938;2023-04-24T01:07:22;9.50;99.90
26691;DHT22;14307;51.718;8.938;2023-04-24T01:09:50;9.50;99.90
26691;DHT22;14307;51.718;8.938;2023-04-24T01:12:19;9.50;99.90
26691;DHT22;14307;51.718;8.938;2023-04-24T01:14:46;9.50;99.90
26691;DHT22;14307;51.718;8.938;2023-04-24T01:17:14;9.50;99.90
26691;DHT22;14307;51.718;8.938;2023-04-24T01:19:41;9.50;99.90
26691;DHT22;14307;51.718;8.938;2023-04-24T01:22:13;9.40;99.90
26691;DHT22;14307;51.718;8.938;2023-04-24T01:24:41;9.50;99.90
26691;DHT22;14307;51.718;8.938;2023-04-24T01:27:09;9.60;99.90
26691;DHT22;14307;51.718;8.938;2023-04-24T01:29:36;9.60;99.90
26691;DHT22;14307;51.718;8.938;2023-04-24T01:32:04;9.70;99.90
26691;DHT22;14307;51.718;8.938;2023-04-24T01:34:32;9.70;99.90
26691;DHT22;14307;51.718;8.938;2023-04-24T01:36:59;9.80;99.90
26691;DHT22;14307;51.718;8.938;2023-04-24T01:39:26;9.80;99.90
26691;DHT22;14307;51.718;8.938;2023-04-24T01:41:55;9.80;99.90
26691;DHT22;14307;51.718;8.938;2023-04-24T01:44:22;9.80;99.90
26691;DHT22;14307;51.718;8.938;2023-04-24T01:46:49;9.80;99.90
26691;DHT22;14307;51.718;8.938;2023-04-24T01:49:16;9.80;99.90
26691;DHT22;14307;51.718;8.938;2023-04-24T01:51:44;9.80;99.90
26691;DHT22;14307;51.718;8.938;2023-04-24T01:54:11;9.80;99.90
26691;DHT22;14307;51.718;8.938;2023-04-24T01:56:41;9.70;99.90
26691;DHT22;14307;51.718;8.938;2023-04-24T01:59:11;9.70;99.90
26691;DHT22;14307;51.718;8.938;2023-04-24T02:01:39;9.70;99.90
26691;DHT22;14307;51.718;8.938;2023-04-24T02:04:07;9.60;99.90
26691;DHT22;14307;51.718;8.938;2023-04-24T02:06:34;9.60;99.90
26691;DHT22;14307;51.718;8.938;2023-04-24T02:09:02;9.50;99.90
26691;DHT22;14307;51.718;8.938;2023-04-24T02:11:29;9.50;99.90
26691;DHT22;14307;51.718;8.938;2023-04-24T02:13:57;9.40;99.90
26691;DHT22;14307;51.718;8.938;2023-04-24T02:16:23;9.40;99.90
26691;DHT22;14307;51.718;8.938;2023-04-24T02:18:50;9.40;99.90
26691;DHT22;14307;51.718;8.938;2023-04-24T02:21:17;9.40;99.90
26691;DHT22;14307;51.718;8.938;2023-04-24T02:23:43;9.50;99.90
26691;DHT22;14307;51.718;8.938;2023-04-24T02:26:12;9.50;99.90
26691;DHT22;14307;51.718;8.938;2023-04-24T02:28:39;9.50;99.90
26691;DHT22;14307;51.718;8.938;2023-04-24T02:31:06;9.50;99.90
26691;DHT22;14307;51.718;8.938;2023-04-24T02:33:33;9.50;99.90
26691;DHT22;14307;51.718;8.938;2023-04-24T02:35:59;9.50;99.90
26691;DHT22;14307;51.718;8.938;2023-04-24T02:38:26;9.50;99.90
26691;DHT22;14307;51.718;8.938;2023-04-24T02:40:53;9.50;99.90
26691;DHT22;14307;51.718;8.938;2023-04-24T02:43:20;9.50;99.90
26691;DHT22;14307;51.718;8.938;2023-04-24T02:45:46;9.50;99.90
26691;DHT22;14307;51.718;8.938;2023-04-24T02:48:13;9.50;99.90
26691;DHT22;14307;51.718;8.938;2023-04-24T02:50:40;9.50;99.90
26691;DHT22;14307;51.718;8.938;2023-04-24T02:53:07;9.50;99.90
26691;DHT22;14307;51.718;8.938;2023-04-24T02:55:33;9.50;99.90
26691;DHT22;14307;51.718;8.938;2023-04-24T02:58:00;9.50;99.90
26691;DHT22;14307;51.718;8.938;2023-04-24T03:00:27;9.50;99.90
26691;DHT22;14307;51.718;8.938;2023-04-24T03:02:54;9.50;99.90
26691;DHT22;14307;51.718;8.938;2023-04-24T03:05:21;9.50;99.90
26691;DHT22;14307;51.718;8.938;2023-04-24T03:07:48;9.60;99.90
26691;DHT22;14307;51.718;8.938;2023-04-24T03:10:15;9.60;99.90
26691;DHT22;14307;51.718;8.938;2023-04-24T03:12:41;9.60;99.90
26691;DHT22;14307;51.718;8.938;2023-04-24T03:15:08;9.60;99.90
26691;DHT22;14307;51.718;8.938;2023-04-24T03:17:36;9.60;99.90
26691;DHT22;14307;51.718;8.938;2023-04-24T03:20:05;9.60;99.90
26691;DHT22;14307;51.718;8.938;2023-04-24T03:22:32;9.70;99.90
26691;DHT22;14307;51.718;8.938;2023-04-24T03:25:01;9.70;99.90
26691;DHT22;14307;51.718;8.938;2023-04-24T03:27:28;9.70;99.90
26691;DHT22;14307;51.718;8.938;2023-04-24T03:29:59;9.70;99.90
26691;DHT22;14307;51.718;8.938;2023-04-24T03:32:47;9.70;99.90
26691;DHT22;14307;51.718;8.938;2023-04-24T03:35:19;9.80;99.90
26691;DHT22;14307;51.718;8.938;2023-04-24T03:37:48;9.70;99.90
26691;DHT22;14307;51.718;8.938;2023-04-24T03:40:33;9.70;99.90
26691;DHT22;14307;51.718;8.938;2023-04-24T03:43:01;9.70;99.90
26691;DHT22;14307;51.718;8.938;2023-04-24T03:45:28;9.70;99.90
26691;DHT22;14307;51.718;8.938;2023-04-24T03:47:56;9.60;99.90
26691;DHT22;14307;51.718;8.938;2023-04-24T03:50:23;9.60;99.90
26691;DHT22;14307;51.718;8.938;2023-04-24T03:52:50;9.70;99.90
26691;DHT22;14307;51.718;8.938;2023-04-24T03:55:28;9.60;99.90
26691;DHT22;14307;51.718;8.938;2023-04-24T03:57:54;9.60;99.90
26691;DHT22;14307;51.718;8.938;2023-04-24T04:00:22;9.60;99.90
26691;DHT22;14307;51.718;8.938;2023-04-24T04:03:01;9.60;99.90
26691;DHT22;14307;51.718;8.938;2023-04-24T04:05:28;9.60;99.90
26691;DHT22;14307;51.718;8.938;2023-04-24T04:07:56;9.60;99.90
26691;DHT22;14307;51.718;8.938;2023-04-24T04:10:22;9.60;99.90
26691;DHT22;14307;51.718;8.938;2023-04-24T04:12:49;9.60;99.90
26691;DHT22;14307;51.718;8.938;2023-04-24T04:15:16;9.60;99.90
26691;DHT22;14307;51.718;8.938;2023-04-24T04:17:43;9.60;99.90
26691;DHT22;14307;51.718;8.938;2023-04-24T04:20:10;9.60;99.90
26691;DHT22;14307;51.718;8.938;2023-04-24T04:22:39;9.50;99.90
26691;DHT22;14307;51.718;8.938;2023-04-24T04:25:11;9.50;99.90
26691;DHT22;14307;51.718;8.938;2023-04-24T04:27:40;9.50;99.90
26691;DHT22;14307;51.718;8.938;2023-04-24T04:30:10;9.50;99.90
26691;DHT22;14307;51.718;8.938;2023-04-24T04:32:45;9.40;99.90
26691;DHT22;14307;51.718;8.938;2023-04-24T04:35:13;9.40;99.90
26691;DHT22;14307;51.718;8.938;2023-04-24T04:37:40;9.40;99.90
26691;DHT22;14307;51.718;8.938;2023-04-24T04:40:19;9.30;99.90
26691;DHT22;14307;51.718;8.938;2023-04-24T04:42:55;9.40;99.90
26691;DHT22;14307;51.718;8.938;2023-04-24T04:45:24;9.30;99.90
26691;DHT22;14307;51.718;8.938;2023-04-24T04:48:13;9.00;99.90
26691;DHT22;14307;51.718;8.938;2023-04-24T04:50:40;8.90;99.90
26691;DHT22;14307;51.718;8.938;2023-04-24T04:53:07;8.70;99.90
26691;DHT22;14307;51.718;8.938;2023-04-24T04:55:37;8.70;99.90
26691;DHT22;14307;51.718;8.938;2023-04-24T04:58:10;8.70;99.90
26691;DHT22;14307;51.718;8.938;2023-04-24T05:00:37;8.70;99.90
26691;DHT22;14307;51.718;8.938;2023-04-24T05:03:15;8.70;99.90
26691;DHT22;14307;51.718;8.938;2023-04-24T05:05:52;8.70;99.90
26691;DHT22;14307;51.718;8.938;2023-04-24T05:08:18;8.80;99.90
26691;DHT22;14307;51.718;8.938;2023-04-24T05:10:54;8.80;99.90
26691;DHT22;14307;51.718;8.938;2023-04-24T05:13:21;8.80;99.90
26691;DHT22;14307;51.718;8.938;2023-04-24T05:16:07;8.80;99.90
26691;DHT22;14307;51.718;8.938;2023-04-24T05:18:34;8.80;99.90
26691;DHT22;14307;51.718;8.938;2023-04-24T05:21:01;8.80;99.90
26691;DHT22;14307;51.718;8.938;2023-04-24T05:23:28;8.80;99.90
26691;DHT22;14307;51.718;8.938;2023-04-24T05:25:56;8.80;99.90
26691;DHT22;14307;51.718;8.938;2023-04-24T05:28:23;8.80;99.90
26691;DHT22;14307;51.718;8.938;2023-04-24T05:31:02;8.80;99.90
26691;DHT22;14307;51.718;8.938;2023-04-24T05:33:29;8.80;99.90
26691;DHT22;14307;51.718;8.938;2023-04-24T05:35:56;8.80;99.90
26691;DHT22;14307;51.718;8.938;2023-04-24T05:38:23;8.80;99.90
26691;DHT22;14307;51.718;8.938;2023-04-24T05:40:50;8.80;99.90
26691;DHT22;14307;51.718;8.938;2023-04-24T05:43:16;8.70;99.90
26691;DHT22;14307;51.718;8.938;2023-04-24T05:45:43;8.70;99.90
26691;DHT22;14307;51.718;8.938;2023-04-24T05:48:10;8.60;99.90
26691;DHT22;14307;51.718;8.938;2023-04-24T05:50:36;8.60;99.90
26691;DHT22;14307;51.718;8.938;2023-04-24T05:53:04;8.60;99.90
26691;DHT22;14307;51.718;8.938;2023-04-24T05:55:33;8.70;99.90
26691;DHT22;14307;51.718;8.938;2023-04-24T05:58:01;8.70;99.90
26691;DHT22;14307;51.718;8.938;2023-04-24T06:00:28;8.70;99.90
26691;DHT22;14307;51.718;8.938;2023-04-24T06:03:02;8.70;99.90
26691;DHT22;14307;51.718;8.938;2023-04-24T06:05:30;8.70;99.90
26691;DHT22;14307;51.718;8.938;2023-04-24T06:07:58;8.70;99.90
26691;DHT22;14307;51.718;8.938;2023-04-24T06:10:29;8.70;99.90
26691;DHT22;14307;51.718;8.938;2023-04-24T06:12:56;8.60;99.90
26691;DHT22;14307;51.718;8.938;2023-04-24T06:15:29;8.60;99.90
26691;DHT22;14307;51.718;8.938;2023-04-24T06:18:04;8.70;99.90
26691;DHT22;14307;51.718;8.938;2023-04-24T06:20:32;8.70;99.90
26691;DHT22;14307;51.718;8.938;2023-04-24T06:23:00;8.80;99.90
26691;DHT22;14307;51.718;8.938;2023-04-24T06:25:28;8.80;99.90
26691;DHT22;14307;51.718;8.938;2023-04-24T06:27:55;8.90;99.90
26691;DHT22;14307;51.718;8.938;2023-04-24T06:30:22;9.00;99.90
26691;DHT22;14307;51.718;8.938;2023-04-24T06:32:50;9.00;99.90
26691;DHT22;14307;51.718;8.938;2023-04-24T06:35:21;9.10;99.90
26691;DHT22;14307;51.718;8.938;2023-04-24T06:37:48;9.40;99.90
26691;DHT22;14307;51.718;8.938;2023-04-24T06:40:15;9.60;99.90
26691;DHT22;14307;51.718;8.938;2023-04-24T06:42:42;10.00;99.90
26691;DHT22;14307;51.718;8.938;2023-04-24T06:45:09;10.20;99.90
26691;DHT22;14307;51.718;8.938;2023-04-24T06:47:36;10.20;99.90
26691;DHT22;14307;51.718;8.938;2023-04-24T06:50:03;10.40;99.90
26691;DHT22;14307;51.718;8.938;2023-04-24T06:53:02;10.40;99.90
26691;DHT22;14307;51.718;8.938;2023-04-24T06:55:50;10.40;99.90
26691;DHT22;14307;51.718;8.938;2023-04-24T06:58:17;10.00;99.90
26691;DHT22;14307;51.718;8.938;2023-04-24T07:00:44;9.70;99.90
26691;DHT22;14307;51.718;8.938;2023-04-24T07:03:12;9.50;99.90
26691;DHT22;14307;51.718;8.938;2023-04-24T07:05:39;9.40;99.90
26691;DHT22;14307;51.718;8.938;2023-04-24T07:08:06;9.30;99.90
26691;DHT22;14307;51.718;8.938;2023-04-24T07:10:33;9.10;99.90
26691;DHT22;14307;51.718;8.938;2023-04-24T07:13:02;9.00;99.90
26691;DHT22;14307;51.718;8.938;2023-04-24T07:15:29;9.00;99.90
26691;DHT22;14307;51.718;8.938;2023-04-24T07:17:55;9.00;99.90
26691;DHT22;14307;51.718;8.938;2023-04-24T07:20:22;8.90;99.90
26691;DHT22;14307;51.718;8.938;2023-04-24T07:22:49;8.90;99.90
26691;DHT22;14307;51.718;8.938;2023-04-24T07:25:16;8.90;99.90
26691;DHT22;14307;51.718;8.938;2023-04-24T07:27:42;9.00;99.90
26691;DHT22;14307;51.718;8.938;2023-04-24T07:30:09;9.00;99.90
26691;DHT22;14307;51.718;8.938;2023-04-24T07:32:36;9.00;99.90
26691;DHT22;14307;51.718;8.938;2023-04-24T07:35:03;9.10;99.90
26691;DHT22;14307;51.718;8.938;2023-04-24T07:37:30;9.20;99.90
26691;DHT22;14307;51.718;8.938;2023-04-24T07:39:57;9.30;99.90
26691;DHT22;14307;51.718;8.938;2023-04-24T07:42:24;9.40;99.90
26691;DHT22;14307;51.718;8.938;2023-04-24T07:44:50;9.50;99.90
26691;DHT22;14307;51.718;8.938;2023-04-24T07:47:17;9.60;99.90
26691;DHT22;14307;51.718;8.938;2023-04-24T07:49:44;9.60;99.90
26691;DHT22;14307;51.718;8.938;2023-04-24T07:52:11;9.80;99.90
26691;DHT22;14307;51.718;8.938;2023-04-24T07:54:38;10.00;99.90
26691;DHT22;14307;51.718;8.938;2023-04-24T07:57:04;10.00;99.90
26691;DHT22;14307;51.718;8.938;2023-04-24T07:59:33;9.90;99.90
26691;DHT22;14307;51.718;8.938;2023-04-24T08:01:59;10.00;99.90
26691;DHT22;14307;51.718;8.938;2023-04-24T08:04:27;10.00;99.90
26691;DHT22;14307;51.718;8.938;2023-04-24T08:06:55;10.00;99.90
26691;DHT22;14307;51.718;8.938;2023-04-24T08:09:21;9.90;99.90
26691;DHT22;14307;51.718;8.938;2023-04-24T08:11:48;9.80;99.90
26691;DHT22;14307;51.718;8.938;2023-04-24T08:14:15;9.80;99.90
26691;DHT22;14307;51.718;8.938;2023-04-24T08:16:42;10.00;99.90
26691;DHT22;14307;51.718;8.938;2023-04-24T08:19:08;9.90;99.90
26691;DHT22;14307;51.718;8.938;2023-04-24T08:21:35;9.80;99.90
26691;DHT22;14307;51.718;8.938;2023-04-24T08:24:02;9.70;99.90
26691;DHT22;14307;51.718;8.938;2023-04-24T08:26:31;9.70;99.90
26691;DHT22;14307;51.718;8.938;2023-04-24T08:28:58;9.60;99.90
26691;DHT22;14307;51.718;8.938;2023-04-24T08:31:25;9.60;99.90
26691;DHT22;14307;51.718;8.938;2023-04-24T08:33:52;9.60;99.90
26691;DHT22;14307;51.718;8.938;2023-04-24T08:36:19;9.60;99.90
26691;DHT22;14307;51.718;8.938;2023-04-24T08:38:46;9.60;99.90
26691;DHT22;14307;51.718;8.938;2023-04-24T08:41:14;9.60;99.90
26691;DHT22;14307;51.718;8.938;2023-04-24T08:43:42;9.60;99.90
26691;DHT22;14307;51.718;8.938;2023-04-24T08:46:10;9.60;99.90
26691;DHT22;14307;51.718;8.938;2023-04-24T08:48:39;9.60;99.90
26691;DHT22;14307;51.718;8.938;2023-04-24T08:51:08;9.60;99.90
26691;DHT22;14307;51.718;8.938;2023-04-24T08:53:35;9.70;99.90
26691;DHT22;14307;51.718;8.938;2023-04-24T08:56:03;9.70;99.90
26691;DHT22;14307;51.718;8.938;2023-04-24T08:58:32;9.70;99.90
26691;DHT22;14307;51.718;8.938;2023-04-24T09:01:00;9.70;99.90
26691;DHT22;14307;51.718;8.938;2023-04-24T09:03:28;9.70;99.90
26691;DHT22;14307;51.718;8.938;2023-04-24T09:05:55;9.80;99.90
26691;DHT22;14307;51.718;8.938;2023-04-24T09:08:25;9.80;99.90
26691;DHT22;14307;51.718;8.938;2023-04-24T09:10:52;9.90;99.90
26691;DHT22;14307;51.718;8.938;2023-04-24T09:13:20;10.00;99.90
26691;DHT22;14307;51.718;8.938;2023-04-24T09:15:47;10.10;99.90
26691;DHT22;14307;51.718;8.938;2023-04-24T09:18:14;10.20;99.90
26691;DHT22;14307;51.718;8.938;2023-04-24T09:21:00;10.10;99.90
26691;DHT22;14307;51.718;8.938;2023-04-24T09:23:28;10.00;99.90
26691;DHT22;14307;51.718;8.938;2023-04-24T09:25:55;10.00;99.90
26691;DHT22;14307;51.718;8.938;2023-04-24T09:28:41;9.80;99.90
26691;DHT22;14307;51.718;8.938;2023-04-24T09:31:18;9.60;99.90
26691;DHT22;14307;51.718;8.938;2023-04-24T09:36:27;9.50;99.90
26691;DHT22;14307;51.718;8.938;2023-04-24T09:39:01;9.50;99.90
26691;DHT22;14307;51.718;8.938;2023-04-24T09:41:28;9.60;99.90
26691;DHT22;14307;51.718;8.938;2023-04-24T09:43:56;9.70;99.90
26691;DHT22;14307;51.718;8.938;2023-04-24T09:46:30;9.80;99.90
26691;DHT22;14307;51.718;8.938;2023-04-24T09:49:08;9.70;99.90
26691;DHT22;14307;51.718;8.938;2023-04-24T09:51:37;9.80;99.90
26691;DHT22;14307;51.718;8.938;2023-04-24T09:54:11;9.80;99.90
26691;DHT22;14307;51.718;8.938;2023-04-24T09:56:43;9.80;99.90
26691;DHT22;14307;51.718;8.938;2023-04-24T09:59:11;9.80;99.90
26691;DHT22;14307;51.718;8.938;2023-04-24T10:01:37;9.70;99.90
26691;DHT22;14307;51.718;8.938;2023-04-24T10:04:04;9.60;99.90
26691;DHT22;14307;51.718;8.938;2023-04-24T10:06:35;9.60;99.90
26691;DHT22;14307;51.718;8.938;2023-04-24T10:09:02;9.60;99.90
26691;DHT22;14307;51.718;8.938;2023-04-24T10:11:30;9.50;99.90
26691;DHT22;14307;51.718;8.938;2023-04-24T10:13:57;9.50;99.90
26691;DHT22;14307;51.718;8.938;2023-04-24T10:16:25;9.60;99.90
26691;DHT22;14307;51.718;8.938;2023-04-24T10:18:54;9.70;99.90
26691;DHT22;14307;51.718;8.938;2023-04-24T10:21:21;9.70;99.90
26691;DHT22;14307;51.718;8.938;2023-04-24T10:23:49;9.70;99.90
26691;DHT22;14307;51.718;8.938;2023-04-24T10:26:16;9.60;99.90
26691;DHT22;14307;51.718;8.938;2023-04-24T10:28:45;9.70;99.90
26691;DHT22;14307;51.718;8.938;2023-04-24T10:31:13;9.70;99.90
26691;DHT22;14307;51.718;8.938;2023-04-24T10:33:41;9.80;99.90
26691;DHT22;14307;51.718;8.938;2023-04-24T10:36:12;9.70;99.90
26691;DHT22;14307;51.718;8.938;2023-04-24T10:38:42;9.80;99.90
26691;DHT22;14307;51.718;8.938;2023-04-24T10:41:11;9.60;99.90
26691;DHT22;14307;51.718;8.938;2023-04-24T10:43:46;9.40;99.90
26691;DHT22;14307;51.718;8.938;2023-04-24T10:46:21;9.20;99.90
26691;DHT22;14307;51.718;8.938;2023-04-24T10:48:54;8.90;99.90
26691;DHT22;14307;51.718;8.938;2023-04-24T10:51:22;8.40;99.90
26691;DHT22;14307;51.718;8.938;2023-04-24T10:53:50;8.30;99.90
26691;DHT22;14307;51.718;8.938;2023-04-24T10:56:18;8.20;99.90
26691;DHT22;14307;51.718;8.938;2023-04-24T10:58:49;8.40;99.90
26691;DHT22;14307;51.718;8.938;2023-04-24T11:01:26;8.60;99.90
26691;DHT22;14307;51.718;8.938;2023-04-24T11:03:58;8.70;99.90
26691;DHT22;14307;51.718;8.938;2023-04-24T11:06:36;8.60;99.90
26691;DHT22;14307;51.718;8.938;2023-04-24T11:09:07;8.30;99.90
26691;DHT22;14307;51.718;8.938;2023-04-24T11:11:36;8.00;99.90
26691;DHT22;14307;51.718;8.938;2023-04-24T11:14:05;7.90;99.90
26691;DHT22;14307;51.718;8.938;2023-04-24T11:16:53;7.70;99.90
26691;DHT22;14307;51.718;8.938;2023-04-24T11:19:26;7.70;99.90
26691;DHT22;14307;51.718;8.938;2023-04-24T11:22:03;7.70;99.90
26691;DHT22;14307;51.718;8.938;2023-04-24T11:27:20;7.80;99.90
26691;DHT22;14307;51.718;8.938;2023-04-24T11:37:39;7.80;99.90
26691;DHT22;14307;51.718;8.938;2023-04-24T11:40:11;7.80;99.90
26691;DHT22;14307;51.718;8.938;2023-04-24T11:42:40;7.80;99.90
26691;DHT22;14307;51.718;8.938;2023-04-24T11:45:09;7.80;99.90
26691;DHT22;14307;51.718;8.938;2023-04-24T11:47:37;7.70;99.90
26691;DHT22;14307;51.718;8.938;2023-04-24T11:50:05;7.70;99.90
26691;DHT22;14307;51.718;8.938;2023-04-24T11:52:39;7.60;99.90
26691;DHT22;14307;51.718;8.938;2023-04-24T11:57:46;7.80;99.90
26691;DHT22;14307;51.718;8.938;2023-04-24T12:00:21;7.70;99.90
26691;DHT22;14307;51.718;8.938;2023-04-24T12:02:49;7.70;99.90
26691;DHT22;14307;51.718;8.938;2023-04-24T12:05:34;7.80;99.90
26691;DHT22;14307;51.718;8.938;2023-04-24T12:08:01;7.80;99.90
26691;DHT22;14307;51.718;8.938;2023-04-24T12:10:29;7.70;99.90
26691;DHT22;14307;51.718;8.938;2023-04-24T12:12:57;7.80;99.90
26691;DHT22;14307;51.718;8.938;2023-04-24T12:15:25;7.80;99.90
26691;DHT22;14307;51.718;8.938;2023-04-24T12:17:53;7.80;99.90
26691;DHT22;14307;51.718;8.938;2023-04-24T12:20:30;7.70;99.90
26691;DHT22;14307;51.718;8.938;2023-04-24T12:22:58;7.60;99.90
26691;DHT22;14307;51.718;8.938;2023-04-24T12:25:30;7.70;99.90
26691;DHT22;14307;51.718;8.938;2023-04-24T12:30:35;7.50;99.90
26691;DHT22;14307;51.718;8.938;2023-04-24T12:33:04;7.40;99.90
26691;DHT22;14307;51.718;8.938;2023-04-24T12:35:33;7.30;99.90
26691;DHT22;14307;51.718;8.938;2023-04-24T12:38:25;7.30;99.90
26691;DHT22;14307;51.718;8.938;2023-04-24T12:41:03;7.30;99.90
26691;DHT22;14307;51.718;8.938;2023-04-24T12:43:31;7.40;99.90
26691;DHT22;14307;51.718;8.938;2023-04-24T12:45:58;7.30;99.90
26691;DHT22;14307;51.718;8.938;2023-04-24T12:48:26;7.30;99.90
26691;DHT22;14307;51.718;8.938;2023-04-24T12:50:53;7.10;99.90
26691;DHT22;14307;51.718;8.938;2023-04-24T12:53:21;7.10;99.90
26691;DHT22;14307;51.718;8.938;2023-04-24T12:55:47;7.10;99.90
26691;DHT22;14307;51.718;8.938;2023-04-24T12:58:20;7.30;99.90
26691;DHT22;14307;51.718;8.938;2023-04-24T13:00:47;7.30;99.90
26691;DHT22;14307;51.718;8.938;2023-04-24T13:03:14;7.20;99.90
26691;DHT22;14307;51.718;8.938;2023-04-24T13:05:42;7.20;99.90
26691;DHT22;14307;51.718;8.938;2023-04-24T13:08:09;7.20;99.90
26691;DHT22;14307;51.718;8.938;2023-04-24T13:10:36;7.30;99.90
26691;DHT22;14307;51.718;8.938;2023-04-24T13:13:03;7.20;99.90
26691;DHT22;14307;51.718;8.938;2023-04-24T13:15:30;7.10;99.90
26691;DHT22;14307;51.718;8.938;2023-04-24T13:17:56;7.20;99.90
26691;DHT22;14307;51.718;8.938;2023-04-24T13:20:23;7.10;99.90
26691;DHT22;14307;51.718;8.938;2023-04-24T13:22:50;7.10;99.90
26691;DHT22;14307;51.718;8.938;2023-04-24T13:25:17;7.20;99.90
26691;DHT22;14307;51.718;8.938;2023-04-24T13:27:44;7.30;99.90
26691;DHT22;14307;51.718;8.938;2023-04-24T13:30:12;7.30;99.90
26691;DHT22;14307;51.718;8.938;2023-04-24T13:32:39;7.30;99.90
26691;DHT22;14307;51.718;8.938;2023-04-24T13:35:06;7.30;99.90
26691;DHT22;14307;51.718;8.938;2023-04-24T13:37:33;7.30;99.90
26691;DHT22;14307;51.718;8.938;2023-04-24T13:39:59;7.20;99.90
26691;DHT22;14307;51.718;8.938;2023-04-24T13:42:29;7.20;99.90
26691;DHT22;14307;51.718;8.938;2023-04-24T13:44:56;7.30;99.90
26691;DHT22;14307;51.718;8.938;2023-04-24T13:47:22;7.20;99.90
26691;DHT22;14307;51.718;8.938;2023-04-24T13:49:49;7.30;99.90
26691;DHT22;14307;51.718;8.938;2023-04-24T13:52:16;7.40;99.90
26691;DHT22;14307;51.718;8.938;2023-04-24T13:54:43;7.30;99.90
26691;DHT22;14307;51.718;8.938;2023-04-24T13:57:10;7.50;99.90
26691;DHT22;14307;51.718;8.938;2023-04-24T13:59:37;7.40;99.90
26691;DHT22;14307;51.718;8.938;2023-04-24T14:02:04;7.40;99.90
26691;DHT22;14307;51.718;8.938;2023-04-24T14:04:32;7.40;99.90
26691;DHT22;14307;51.718;8.938;2023-04-24T14:06:59;7.40;99.90
26691;DHT22;14307;51.718;8.938;2023-04-24T14:09:26;7.50;99.90
26691;DHT22;14307;51.718;8.938;2023-04-24T14:11:52;7.40;99.90
26691;DHT22;14307;51.718;8.938;2023-04-24T14:14:19;7.40;99.90
26691;DHT22;14307;51.718;8.938;2023-04-24T14:16:46;7.50;99.90
26691;DHT22;14307;51.718;8.938;2023-04-24T14:19:12;7.40;99.90
26691;DHT22;14307;51.718;8.938;2023-04-24T14:21:39;7.50;99.90
26691;DHT22;14307;51.718;8.938;2023-04-24T14:24:06;7.50;99.90
26691;DHT22;14307;51.718;8.938;2023-04-24T14:26:33;7.50;99.90
26691;DHT22;14307;51.718;8.938;2023-04-24T14:28:59;7.40;99.90
26691;DHT22;14307;51.718;8.938;2023-04-24T14:31:40;7.40;99.90
26691;DHT22;14307;51.718;8.938;2023-04-24T14:34:07;7.40;99.90
26691;DHT22;14307;51.718;8.938;2023-04-24T14:36:33;7.30;99.90
26691;DHT22;14307;51.718;8.938;2023-04-24T14:39:01;7.30;99.90
26691;DHT22;14307;51.718;8.938;2023-04-24T14:41:32;7.40;99.90
26691;DHT22;14307;51.718;8.938;2023-04-24T14:44:02;7.40;99.90
26691;DHT22;14307;51.718;8.938;2023-04-24T14:46:30;7.40;99.90
26691;DHT22;14307;51.718;8.938;2023-04-24T14:48:57;7.50;99.90
26691;DHT22;14307;51.718;8.938;2023-04-24T14:51:24;7.50;99.90
26691;DHT22;14307;51.718;8.938;2023-04-24T14:53:52;7.40;99.90
26691;DHT22;14307;51.718;8.938;2023-04-24T14:56:18;7.50;99.90
26691;DHT22;14307;51.718;8.938;2023-04-24T14:58:49;7.50;99.90
26691;DHT22;14307;51.718;8.938;2023-04-24T15:01:15;7.60;99.90
26691;DHT22;14307;51.718;8.938;2023-04-24T15:03:43;7.60;99.90
26691;DHT22;14307;51.718;8.938;2023-04-24T15:06:14;7.60;99.90
26691;DHT22;14307;51.718;8.938;2023-04-24T15:08:42;7.70;99.90
26691;DHT22;14307;51.718;8.938;2023-04-24T15:11:12;7.80;99.90
26691;DHT22;14307;51.718;8.938;2023-04-24T15:13:38;7.80;99.90
26691;DHT22;14307;51.718;8.938;2023-04-24T15:16:05;7.70;99.90
26691;DHT22;14307;51.718;8.938;2023-04-24T15:18:32;7.80;99.90
26691;DHT22;14307;51.718;8.938;2023-04-24T15:20:59;7.80;99.90
26691;DHT22;14307;51.718;8.938;2023-04-24T15:23:26;7.70;99.90
26691;DHT22;14307;51.718;8.938;2023-04-24T15:25:53;7.70;99.90
26691;DHT22;14307;51.718;8.938;2023-04-24T15:28:20;7.70;99.90
26691;DHT22;14307;51.718;8.938;2023-04-24T15:30:48;7.70;99.90
26691;DHT22;14307;51.718;8.938;2023-04-24T15:33:14;7.70;99.90
26691;DHT22;14307;51.718;8.938;2023-04-24T15:35:41;7.70;99.90
26691;DHT22;14307;51.718;8.938;2023-04-24T15:38:08;7.70;99.90
26691;DHT22;14307;51.718;8.938;2023-04-24T15:40:35;7.60;99.90
26691;DHT22;14307;51.718;8.938;2023-04-24T15:43:02;7.60;99.90
26691;DHT22;14307;51.718;8.938;2023-04-24T15:45:28;7.60;99.90
26691;DHT22;14307;51.718;8.938;2023-04-24T15:47:57;7.70;99.90
26691;DHT22;14307;51.718;8.938;2023-04-24T15:50:24;7.60;99.90
26691;DHT22;14307;51.718;8.938;2023-04-24T15:52:50;7.70;99.90
26691;DHT22;14307;51.718;8.938;2023-04-24T15:55:17;7.70;99.90
26691;DHT22;14307;51.718;8.938;2023-04-24T15:57:44;7.70;99.90
26691;DHT22;14307;51.718;8.938;2023-04-24T16:00:11;7.70;99.90
26691;DHT22;14307;51.718;8.938;2023-04-24T16:02:38;7.70;99.90
26691;DHT22;14307;51.718;8.938;2023-04-24T16:05:06;7.70;99.90
26691;DHT22;14307;51.718;8.938;2023-04-24T16:07:34;7.70;99.90
26691;DHT22;14307;51.718;8.938;2023-04-24T16:10:01;7.60;99.90
26691;DHT22;14307;51.718;8.938;2023-04-24T16:12:28;7.60;99.90